createdAt,value
2022-09-17T00:02:33.290Z,100339.00
2022-09-17T00:07:33.364Z,100345.00
2022-09-17T00:12:33.363Z,100343.00
2022-09-17T00:17:33.342Z,100345.00
2022-09-17T00:22:33.319Z,100345.00
2022-09-17T00:27:33.288Z,100343.00
2022-09-17T00:32:33.304Z,100343.00
2022-09-17T00:37:36.358Z,100347.00
2022-09-17T00:42:36.515Z,100351.00
2022-09-17T00:47:36.346Z,100349.00
2022-09-17T00:52:36.539Z,100353.00
2022-09-17T00:57:36.636Z,100355.00
2022-09-17T01:02:38.439Z,100359.00
2022-09-17T01:07:38.362Z,100363.00
2022-09-17T01:12:38.590Z,100368.00
2022-09-17T01:17:38.317Z,100370.00
2022-09-17T01:22:38.450Z,100370.00
2022-09-17T01:27:43.701Z,100366.00
2022-09-17T01:32:41.540Z,100364.00
2022-09-17T01:37:41.340Z,100366.00
2022-09-17T01:42:41.447Z,100368.00
2022-09-17T01:47:41.371Z,100372.00
2022-09-17T01:52:41.618Z,100370.00
2022-09-17T01:57:41.484Z,100372.00
2022-09-17T02:02:41.502Z,100372.00
2022-09-17T02:07:41.352Z,100374.00
2022-09-17T02:12:41.383Z,100372.00
2022-09-17T02:17:41.484Z,100374.00
2022-09-17T02:22:41.382Z,100374.00
2022-09-17T02:27:42.702Z,100378.00
2022-09-17T02:32:42.421Z,100382.00
2022-09-17T02:37:42.415Z,100382.00
2022-09-17T02:42:42.490Z,100386.00
2022-09-17T02:47:42.450Z,100384.00
2022-09-17T02:52:42.377Z,100384.00
2022-09-17T02:57:42.400Z,100382.00
2022-09-17T03:02:44.401Z,100382.00
2022-09-17T03:07:44.430Z,100388.00
2022-09-17T03:12:44.424Z,100392.00
2022-09-17T03:17:44.509Z,100394.00
2022-09-17T03:22:44.450Z,100398.00
2022-09-17T03:27:44.453Z,100392.00
2022-09-17T03:32:44.432Z,100392.00
2022-09-17T03:37:44.421Z,100398.00
2022-09-17T03:42:44.428Z,100392.00
2022-09-17T03:47:44.497Z,100396.00
2022-09-17T03:52:44.431Z,100396.00
2022-09-17T03:57:44.438Z,100398.00
2022-09-17T04:02:44.623Z,100400.00
2022-09-17T04:07:44.429Z,100398.00
2022-09-17T04:12:47.934Z,100400.00
2022-09-17T04:17:47.555Z,100408.00
2022-09-17T04:22:47.454Z,100410.00
2022-09-17T04:27:47.575Z,100410.00
2022-09-17T04:32:47.441Z,100417.00
2022-09-17T04:37:47.554Z,100423.00
2022-09-17T04:42:47.478Z,100419.00
2022-09-17T04:47:47.556Z,100425.00
2022-09-17T04:52:47.491Z,100423.00
2022-09-17T04:57:47.592Z,100427.00
2022-09-17T05:02:47.475Z,100429.00
2022-09-17T05:07:47.588Z,100431.00
2022-09-17T05:12:47.619Z,100437.00
2022-09-17T05:17:47.582Z,100441.00
2022-09-17T05:22:49.608Z,100435.00
2022-09-17T05:27:49.471Z,100437.00
2022-09-17T05:32:49.493Z,100437.00
2022-09-17T05:37:49.507Z,100441.00
2022-09-17T05:42:49.510Z,100449.00
2022-09-17T05:47:49.673Z,100457.00
2022-09-17T05:52:49.519Z,100468.00
2022-09-17T05:57:49.580Z,100478.00
2022-09-17T06:02:50.039Z,100486.00
2022-09-17T06:07:50.557Z,100490.00
2022-09-17T06:12:50.508Z,100494.00
2022-09-17T06:17:50.591Z,100494.00
2022-09-17T06:22:50.534Z,100494.00
2022-09-17T06:27:50.566Z,100496.00
2022-09-17T06:32:51.341Z,100494.00
2022-09-17T06:37:51.680Z,100498.00
2022-09-17T06:42:52.737Z,100498.00
2022-09-17T06:47:52.576Z,100504.00
2022-09-17T06:52:55.023Z,100507.00
2022-09-17T06:57:54.720Z,100511.00
2022-09-17T07:02:54.653Z,100519.00
2022-09-17T07:07:57.041Z,100523.00
2022-09-17T07:13:00.357Z,100527.00
2022-09-17T07:18:05.053Z,100527.00
2022-09-17T07:23:04.574Z,100529.00
2022-09-17T07:28:12.270Z,100525.00
2022-09-17T07:33:07.583Z,100519.00
2022-09-17T07:38:07.586Z,100513.00
2022-09-17T07:43:08.609Z,100511.00
2022-09-17T07:48:08.672Z,100513.00
2022-09-17T07:53:08.920Z,100521.00
2022-09-17T07:58:08.631Z,100519.00
2022-09-17T08:03:08.749Z,100519.00
2022-09-17T08:08:09.772Z,100521.00
2022-09-17T08:13:11.733Z,100517.00
2022-09-17T08:18:12.597Z,100513.00
2022-09-17T08:23:15.168Z,100515.00
2022-09-17T08:28:18.475Z,100509.00
2022-09-17T08:33:20.495Z,100500.00
2022-09-17T08:38:23.133Z,100498.00
2022-09-17T08:43:26.167Z,100492.00
2022-09-17T08:48:25.760Z,100492.00
2022-09-17T08:53:26.528Z,100496.00
2022-09-17T08:59:21.540Z,100496.00
2022-09-17T09:05:10.209Z,100500.00
2022-09-17T09:10:08.002Z,100496.00
2022-09-17T09:15:12.955Z,100490.00
2022-09-17T09:20:15.311Z,100486.00
2022-09-17T09:25:20.215Z,100484.00
2022-09-17T09:30:23.369Z,100492.00
2022-09-17T09:35:23.689Z,100484.00
2022-09-17T09:40:24.011Z,100478.00
2022-09-17T09:45:23.872Z,100480.00
2022-09-17T09:50:38.424Z,100472.00
2022-09-17T09:55:28.783Z,100468.00
2022-09-17T10:00:34.381Z,100470.00
2022-09-17T10:05:35.325Z,100466.00
2022-09-17T10:10:35.707Z,100466.00
2022-09-17T10:15:35.707Z,100460.00
2022-09-17T10:20:38.481Z,100457.00
2022-09-17T10:25:38.762Z,100447.00
2022-09-17T10:30:41.708Z,100443.00
2022-09-17T10:35:43.673Z,100441.00
2022-09-17T10:40:43.714Z,100439.00
2022-09-17T10:45:43.750Z,100433.00
2022-09-17T10:50:43.883Z,100435.00
2022-09-17T10:55:43.710Z,100439.00
2022-09-17T11:00:43.976Z,100437.00
2022-09-17T11:05:43.735Z,100431.00
2022-09-17T11:10:43.772Z,100423.00
2022-09-17T11:15:43.840Z,100417.00
2022-09-17T11:20:44.074Z,100415.00
2022-09-17T11:25:43.760Z,100415.00
2022-09-17T11:30:43.740Z,100415.00
2022-09-17T11:35:49.278Z,100417.00
2022-09-17T11:40:51.107Z,100419.00
2022-09-17T11:45:54.844Z,100421.00
2022-09-17T11:51:00.550Z,100425.00
2022-09-17T11:56:00.721Z,100433.00
2022-09-17T12:01:02.247Z,100441.00
2022-09-17T12:06:03.311Z,100451.00
2022-09-17T12:11:04.041Z,100462.00
2022-09-17T12:16:08.628Z,100468.00
2022-09-17T12:21:10.830Z,100474.00
2022-09-17T12:26:11.989Z,100466.00
2022-09-17T12:31:11.959Z,100462.00
2022-09-17T12:36:11.854Z,100462.00
2022-09-17T12:41:11.825Z,100460.00
2022-09-17T12:46:11.955Z,100464.00
2022-09-17T12:51:12.234Z,100472.00
2022-09-17T12:56:11.834Z,100486.00
2022-09-17T13:01:12.019Z,100480.00
2022-09-17T13:06:13.750Z,100472.00
2022-09-17T13:11:13.826Z,100458.00
2022-09-17T13:16:18.366Z,100451.00
2022-09-17T13:21:18.391Z,100443.00
2022-09-17T13:26:18.799Z,100433.00
2022-09-17T13:31:18.914Z,100423.00
2022-09-17T13:36:18.871Z,100419.00
2022-09-17T13:41:19.248Z,100423.00
2022-09-17T13:46:19.119Z,100427.00
2022-09-17T13:51:18.928Z,100427.00
2022-09-17T13:56:20.740Z,100415.00
2022-09-17T14:01:20.899Z,100410.00
2022-09-17T14:06:21.806Z,100421.00
2022-09-17T14:11:24.855Z,100425.00
2022-09-17T14:16:25.029Z,100439.00
2022-09-17T14:21:25.104Z,100490.00
2022-09-17T14:26:25.094Z,100492.00
2022-09-17T14:31:25.013Z,100484.00
2022-09-17T14:36:24.965Z,100478.00
2022-09-17T14:41:26.053Z,100478.00
2022-09-17T14:46:25.991Z,100482.00
2022-09-17T14:51:26.087Z,100488.00
2022-09-17T14:56:25.925Z,100472.00
2022-09-17T15:01:26.029Z,100464.00
2022-09-17T15:06:26.010Z,100462.00
2022-09-17T15:11:25.949Z,100458.00
2022-09-17T15:16:26.078Z,100458.00
2022-09-17T15:21:25.916Z,100457.00
2022-09-17T15:26:26.040Z,100458.00
2022-09-17T15:31:26.089Z,100458.00
2022-09-17T15:36:27.134Z,100460.00
2022-09-17T15:41:27.236Z,100462.00
2022-09-17T15:46:27.417Z,100457.00
2022-09-17T15:51:27.188Z,100455.00
2022-09-17T15:56:26.984Z,100457.00
2022-09-17T16:01:26.985Z,100457.00
2022-09-17T16:06:27.532Z,100457.00
2022-09-17T16:11:27.020Z,100468.00
2022-09-17T16:16:27.155Z,100468.00
2022-09-17T16:21:27.393Z,100472.00
2022-09-17T16:26:27.095Z,100478.00
2022-09-17T16:31:27.070Z,100486.00
2022-09-17T16:36:27.063Z,100492.00
2022-09-17T16:41:27.094Z,100498.00
2022-09-17T16:46:27.176Z,100505.00
2022-09-17T16:51:27.010Z,100511.00
2022-09-17T16:56:27.125Z,100513.00
2022-09-17T17:01:27.228Z,100515.00
2022-09-17T17:06:27.506Z,100513.00
2022-09-17T17:11:28.038Z,100515.00
2022-09-17T17:16:28.351Z,100515.00
2022-09-17T17:21:28.123Z,100515.00
2022-09-17T17:26:28.118Z,100517.00
2022-09-17T17:31:28.622Z,100517.00
2022-09-17T17:36:31.650Z,100519.00
2022-09-17T17:41:32.358Z,100521.00
2022-09-17T17:46:32.153Z,100525.00
2022-09-17T17:51:32.056Z,100523.00
2022-09-17T17:56:32.348Z,100529.00
2022-09-17T18:01:34.611Z,100527.00
2022-09-17T18:06:35.179Z,100531.00
2022-09-17T18:11:35.070Z,100533.00
2022-09-17T18:16:35.219Z,100545.00
2022-09-17T18:21:35.094Z,100553.00
2022-09-17T18:26:35.510Z,100559.00
2022-09-17T18:31:35.448Z,100567.00
2022-09-17T18:36:35.093Z,100569.00
2022-09-17T18:41:36.939Z,100573.00
2022-09-17T18:46:37.144Z,100575.00
2022-09-17T18:51:37.043Z,100579.00
2022-09-17T18:56:37.279Z,100583.00
2022-09-17T19:01:37.229Z,100581.00
2022-09-17T19:06:37.076Z,100587.00
2022-09-17T19:11:37.091Z,100587.00
2022-09-17T19:16:40.159Z,100585.00
2022-09-17T19:21:40.088Z,100585.00
2022-09-17T19:26:40.273Z,100590.00
2022-09-17T19:31:40.130Z,100590.00
2022-09-17T19:36:40.087Z,100592.00
2022-09-17T19:41:40.110Z,100594.00
2022-09-17T19:46:40.185Z,100594.00
2022-09-17T19:51:40.126Z,100594.00
2022-09-17T19:56:40.163Z,100594.00
2022-09-17T20:01:40.231Z,100594.00
2022-09-17T20:06:40.098Z,100594.00
2022-09-17T20:11:40.732Z,100594.00
2022-09-17T20:16:42.808Z,100600.00
2022-09-17T20:21:43.134Z,100602.00
2022-09-17T20:26:43.617Z,100604.00
2022-09-17T20:31:43.202Z,100608.00
2022-09-17T20:36:43.145Z,100608.00
2022-09-17T20:41:46.298Z,100612.00
2022-09-17T20:46:46.269Z,100616.00
2022-09-17T20:51:46.459Z,100616.00
2022-09-17T20:56:46.315Z,100618.00
2022-09-17T21:01:46.307Z,100620.00
2022-09-17T21:06:46.229Z,100624.00
2022-09-17T21:11:49.263Z,100626.00
2022-09-17T21:16:49.173Z,100628.00
2022-09-17T21:21:51.050Z,100628.00
2022-09-17T21:26:52.892Z,100630.00
2022-09-17T21:31:53.887Z,100630.00
2022-09-17T21:36:54.334Z,100632.00
2022-09-17T21:41:54.192Z,100634.00
2022-09-17T21:46:56.354Z,100636.00
2022-09-17T21:51:56.146Z,100643.00
2022-09-17T21:56:56.267Z,100643.00
2022-09-17T22:02:01.210Z,100645.00
2022-09-17T22:07:00.025Z,100643.00
2022-09-17T22:12:01.283Z,100647.00
2022-09-17T22:17:01.198Z,100649.00
2022-09-17T22:22:03.132Z,100649.00
2022-09-17T22:27:03.292Z,100653.00
2022-09-17T22:32:03.164Z,100651.00
2022-09-17T22:37:03.876Z,100651.00
2022-09-17T22:42:04.209Z,100651.00
2022-09-17T22:47:04.282Z,100651.00
2022-09-17T22:52:04.237Z,100651.00
2022-09-17T22:57:04.249Z,100649.00
2022-09-17T23:02:04.332Z,100647.00
2022-09-17T23:07:04.309Z,100643.00
2022-09-17T23:12:04.249Z,100641.00
2022-09-17T23:17:04.266Z,100639.00
2022-09-17T23:22:04.249Z,100639.00
2022-09-17T23:27:04.388Z,100636.00
2022-09-17T23:32:04.381Z,100634.00
2022-09-17T23:37:04.289Z,100634.00
2022-09-17T23:42:04.269Z,100637.00
2022-09-17T23:47:04.284Z,100636.00
2022-09-17T23:52:04.624Z,100632.00
2022-09-17T23:57:04.418Z,100632.00
